createdAt,value
2018-07-30T00:00:23.843Z,99.90
2018-07-30T00:02:50.480Z,99.90
2018-07-30T00:05:17.335Z,99.90
2018-07-30T00:07:43.981Z,99.90
2018-07-30T00:10:10.694Z,99.90
2018-07-30T00:12:37.487Z,99.90
2018-07-30T00:15:04.160Z,99.90
2018-07-30T00:17:31.570Z,99.90
2018-07-30T00:19:59.171Z,99.90
2018-07-30T00:22:26.581Z,99.90
2018-07-30T00:24:53.968Z,99.90
2018-07-30T00:27:21.539Z,99.90
2018-07-30T00:29:48.913Z,99.90
2018-07-30T00:32:15.566Z,99.90
2018-07-30T00:34:42.471Z,99.90
2018-07-30T00:37:09.193Z,99.90
2018-07-30T00:39:35.934Z,99.90
2018-07-30T00:42:03.493Z,99.90
2018-07-30T00:44:30.168Z,99.90
2018-07-30T00:46:56.820Z,99.90
2018-07-30T00:49:23.757Z,99.90
2018-07-30T00:51:50.440Z,99.90
2018-07-30T00:54:17.200Z,99.90
2018-07-30T00:56:44.976Z,99.90
2018-07-30T00:59:12.572Z,99.90
2018-07-30T01:01:39.248Z,99.90
2018-07-30T01:04:06.947Z,99.90
2018-07-30T01:06:34.613Z,99.90
2018-07-30T01:09:04.066Z,99.90
2018-07-30T01:11:31.276Z,99.90
2018-07-30T01:13:58.150Z,99.90
2018-07-30T01:16:25.755Z,99.90
2018-07-30T01:18:53.210Z,99.90
2018-07-30T01:21:19.916Z,99.90
2018-07-30T01:23:46.646Z,99.90
2018-07-30T01:26:13.500Z,99.90
2018-07-30T01:28:40.168Z,99.90
2018-07-30T01:31:06.864Z,99.90
2018-07-30T01:33:33.693Z,99.90
2018-07-30T01:36:00.368Z,99.90
2018-07-30T01:38:27.005Z,99.90
2018-07-30T01:40:53.803Z,99.90
2018-07-30T01:43:20.446Z,99.90
2018-07-30T01:45:47.079Z,99.90
2018-07-30T01:48:13.824Z,99.90
2018-07-30T01:50:40.484Z,99.90
2018-07-30T01:53:07.166Z,99.90
2018-07-30T01:55:34.808Z,99.90
2018-07-30T01:58:01.410Z,99.90
2018-07-30T02:00:28.079Z,99.90
2018-07-30T02:02:54.927Z,99.90
2018-07-30T02:05:21.587Z,99.90
2018-07-30T02:07:49.028Z,99.90
2018-07-30T02:10:15.763Z,99.90
2018-07-30T02:12:42.434Z,99.90
2018-07-30T02:15:09.114Z,99.90
2018-07-30T02:17:35.830Z,99.90
2018-07-30T02:20:02.556Z,99.90
2018-07-30T02:22:29.229Z,99.90
2018-07-30T02:24:55.916Z,99.90
2018-07-30T02:27:22.591Z,99.90
2018-07-30T02:29:49.302Z,99.90
2018-07-30T02:32:16.871Z,99.90
2018-07-30T02:34:44.302Z,99.90
2018-07-30T02:37:10.988Z,99.90
2018-07-30T02:39:37.792Z,99.90
2018-07-30T02:42:04.461Z,99.90
2018-07-30T02:44:31.162Z,99.90
2018-07-30T02:46:57.987Z,99.90
2018-07-30T02:49:24.625Z,99.90
2018-07-30T02:51:51.300Z,99.90
2018-07-30T02:54:18.082Z,99.90
2018-07-30T02:56:44.728Z,99.90
2018-07-30T02:59:11.385Z,99.90
2018-07-30T03:01:38.140Z,99.90
2018-07-30T03:04:04.803Z,99.90
2018-07-30T03:06:32.239Z,99.90
2018-07-30T03:08:59.058Z,99.90
2018-07-30T03:11:25.759Z,99.90
2018-07-30T03:13:52.446Z,99.90
2018-07-30T03:16:19.171Z,99.90
2018-07-30T03:18:45.872Z,99.90
2018-07-30T03:21:12.530Z,99.90
2018-07-30T03:23:40.110Z,99.90
2018-07-30T03:26:06.803Z,99.90
2018-07-30T03:28:48.424Z,99.90
2018-07-30T03:31:15.105Z,99.90
2018-07-30T03:33:41.769Z,99.90
2018-07-30T03:36:08.579Z,99.90
2018-07-30T03:38:35.255Z,99.90
2018-07-30T03:41:02.664Z,99.90
2018-07-30T03:43:29.400Z,99.90
2018-07-30T03:45:56.096Z,99.90
2018-07-30T03:48:22.748Z,99.90
2018-07-30T03:50:49.582Z,99.90
2018-07-30T03:53:16.234Z,99.90
2018-07-30T03:55:42.852Z,99.90
2018-07-30T03:58:09.647Z,99.90
2018-07-30T04:00:36.312Z,99.90
2018-07-30T04:03:02.972Z,99.90
2018-07-30T04:05:29.659Z,99.90
2018-07-30T04:07:56.403Z,99.90
2018-07-30T04:10:23.038Z,99.90
2018-07-30T04:12:49.898Z,99.90
2018-07-30T04:15:16.542Z,99.90
2018-07-30T04:17:43.933Z,99.90
2018-07-30T04:20:10.637Z,99.90
2018-07-30T04:22:37.279Z,99.90
2018-07-30T04:25:04.005Z,99.90
2018-07-30T04:27:30.796Z,99.90
2018-07-30T04:29:57.476Z,99.90
2018-07-30T04:32:24.118Z,99.90
2018-07-30T04:34:51.062Z,99.90
2018-07-30T04:37:17.719Z,99.90
2018-07-30T04:39:45.155Z,99.90
2018-07-30T04:42:11.999Z,99.90
2018-07-30T04:44:38.640Z,99.90
2018-07-30T04:47:05.293Z,99.90
2018-07-30T04:49:31.983Z,99.90
2018-07-30T04:51:58.667Z,99.90
2018-07-30T04:54:25.289Z,99.90
2018-07-30T04:56:52.037Z,99.90
2018-07-30T04:59:18.726Z,99.90
2018-07-30T05:01:45.409Z,99.90
2018-07-30T05:04:12.236Z,99.90
2018-07-30T05:06:38.885Z,99.90
2018-07-30T05:09:05.548Z,99.90
2018-07-30T05:11:32.259Z,99.90
2018-07-30T05:13:58.925Z,99.90
2018-07-30T05:16:25.584Z,99.90
2018-07-30T05:18:53.051Z,99.90
2018-07-30T05:21:19.729Z,99.90
2018-07-30T05:23:46.389Z,99.90
2018-07-30T05:26:13.184Z,99.90
2018-07-30T05:28:39.822Z,99.90
2018-07-30T05:31:06.495Z,99.90
2018-07-30T05:33:33.212Z,99.90
2018-07-30T05:35:59.874Z,99.90
2018-07-30T05:38:26.538Z,99.90
2018-07-30T05:40:53.347Z,99.90
2018-07-30T05:43:20.000Z,99.90
2018-07-30T05:45:46.646Z,99.90
2018-07-30T05:48:13.477Z,99.90
2018-07-30T05:50:40.126Z,99.90
2018-07-30T05:53:06.788Z,99.90
2018-07-30T05:55:34.451Z,99.90
2018-07-30T05:58:01.871Z,99.90
2018-07-30T06:00:28.610Z,99.90
2018-07-30T06:02:55.397Z,99.90
2018-07-30T06:05:22.871Z,99.90
2018-07-30T06:07:49.720Z,99.90
2018-07-30T06:10:16.530Z,99.90
2018-07-30T06:12:43.931Z,99.90
2018-07-30T06:15:10.656Z,99.90
2018-07-30T06:17:37.881Z,99.90
2018-07-30T06:20:04.746Z,99.90
2018-07-30T06:22:31.397Z,99.90
2018-07-30T06:24:58.207Z,99.90
2018-07-30T06:27:24.961Z,99.90
2018-07-30T06:29:51.634Z,99.90
2018-07-30T06:32:19.989Z,99.90
2018-07-30T06:34:48.041Z,99.90
2018-07-30T06:37:14.851Z,99.90
2018-07-30T06:39:41.583Z,99.90
2018-07-30T06:42:08.245Z,99.90
2018-07-30T06:44:35.633Z,99.90
2018-07-30T06:47:02.441Z,99.90
2018-07-30T06:49:29.408Z,99.90
2018-07-30T06:51:56.438Z,99.90
2018-07-30T06:54:23.498Z,99.90
2018-07-30T06:56:50.171Z,99.90
2018-07-30T06:59:16.871Z,99.90
2018-07-30T07:01:45.168Z,99.90
2018-07-30T07:04:12.839Z,99.90
2018-07-30T07:06:40.253Z,99.90
2018-07-30T07:09:07.820Z,99.90
2018-07-30T07:11:35.224Z,99.90
2018-07-30T07:14:01.925Z,99.90
2018-07-30T07:16:29.546Z,99.90
2018-07-30T07:18:56.170Z,99.90
2018-07-30T07:21:22.850Z,99.90
2018-07-30T07:23:49.780Z,99.90
2018-07-30T07:26:17.208Z,99.90
2018-07-30T07:28:44.638Z,99.90
2018-07-30T07:31:11.457Z,99.90
2018-07-30T07:33:38.858Z,99.90
2018-07-30T07:36:05.602Z,99.90
2018-07-30T07:41:21.072Z,99.90
2018-07-30T07:43:47.871Z,99.90
2018-07-30T07:46:15.500Z,99.90
2018-07-30T07:48:42.184Z,99.90
2018-07-30T07:51:09.780Z,99.90
2018-07-30T07:53:36.438Z,99.90
2018-07-30T07:56:03.376Z,99.90
2018-07-30T07:58:30.204Z,99.90
2018-07-30T08:00:56.914Z,99.90
2018-07-30T08:03:24.548Z,99.90
2018-07-30T08:05:51.280Z,99.90
2018-07-30T08:08:17.940Z,99.90
2018-07-30T08:10:45.371Z,99.90
2018-07-30T08:13:12.765Z,99.90
2018-07-30T08:15:39.433Z,99.90
2018-07-30T08:18:06.232Z,99.90
2018-07-30T08:20:33.133Z,99.90
2018-07-30T08:22:59.818Z,99.90
2018-07-30T08:25:26.528Z,99.90
2018-07-30T08:27:53.289Z,99.90
2018-07-30T08:30:20.294Z,99.60
2018-07-30T08:32:47.010Z,96.90
2018-07-30T08:35:13.727Z,96.00
2018-07-30T08:37:40.388Z,96.10
2018-07-30T08:40:07.192Z,96.50
2018-07-30T08:42:34.076Z,95.20
2018-07-30T08:45:00.842Z,94.50
2018-07-30T08:47:27.650Z,97.20
2018-07-30T08:49:55.195Z,99.70
2018-07-30T08:52:22.605Z,99.90
2018-07-30T08:54:49.310Z,99.90
2018-07-30T08:57:16.190Z,99.90
2018-07-30T08:59:42.884Z,99.90
2018-07-30T09:02:09.647Z,99.90
2018-07-30T09:04:36.427Z,99.90
2018-07-30T09:07:03.141Z,99.90
2018-07-30T09:09:29.875Z,99.90
2018-07-30T09:11:56.886Z,99.90
2018-07-30T09:14:25.874Z,99.90
2018-07-30T09:16:52.519Z,99.90
2018-07-30T09:19:19.263Z,99.90
2018-07-30T09:21:47.340Z,99.90
2018-07-30T09:24:15.682Z,99.90
2018-07-30T09:26:42.406Z,99.90
2018-07-30T09:29:09.069Z,99.90
2018-07-30T09:31:35.809Z,99.90
2018-07-30T09:34:02.592Z,99.90
2018-07-30T09:36:29.278Z,98.20
2018-07-30T09:38:55.955Z,95.50
2018-07-30T09:41:22.829Z,95.00
2018-07-30T09:43:49.797Z,95.60
2018-07-30T09:46:16.449Z,98.00
2018-07-30T09:48:43.241Z,97.40
2018-07-30T09:51:09.930Z,97.70
2018-07-30T09:53:36.665Z,98.70
2018-07-30T09:56:03.619Z,97.70
2018-07-30T09:58:30.257Z,97.50
2018-07-30T10:00:56.945Z,97.70
2018-07-30T10:03:23.739Z,96.30
2018-07-30T10:05:50.396Z,95.60
2018-07-30T10:08:17.867Z,94.90
2018-07-30T10:10:45.489Z,95.10
2018-07-30T10:13:12.247Z,95.00
2018-07-30T10:15:39.630Z,94.60
2018-07-30T10:18:06.474Z,94.50
2018-07-30T10:20:33.098Z,93.40
2018-07-30T10:23:00.556Z,94.90
2018-07-30T10:25:28.104Z,95.10
2018-07-30T10:27:55.623Z,94.90
2018-07-30T10:30:22.340Z,94.90
2018-07-30T10:32:49.384Z,95.40
2018-07-30T10:35:16.125Z,96.20
2018-07-30T10:37:42.869Z,96.40
2018-07-30T10:40:09.811Z,96.00
2018-07-30T10:42:36.655Z,97.30
2018-07-30T10:45:03.395Z,96.10
2018-07-30T10:47:30.213Z,96.00
2018-07-30T10:49:57.693Z,96.60
2018-07-30T10:52:24.408Z,96.60
2018-07-30T10:54:52.096Z,97.50
2018-07-30T10:57:18.816Z,97.50
2018-07-30T10:59:46.300Z,98.20
2018-07-30T11:02:13.152Z,98.30
2018-07-30T11:04:40.087Z,97.70
2018-07-30T11:07:06.924Z,97.70
2018-07-30T11:09:33.871Z,97.90
2018-07-30T11:12:00.611Z,97.20
2018-07-30T11:14:27.350Z,95.80
2018-07-30T11:16:54.196Z,95.90
2018-07-30T11:19:20.942Z,96.30
2018-07-30T11:21:47.672Z,96.90
2018-07-30T11:24:14.370Z,96.40
2018-07-30T11:26:41.051Z,95.30
2018-07-30T11:29:07.815Z,95.30
2018-07-30T11:31:34.736Z,96.30
2018-07-30T11:34:01.478Z,96.50
2018-07-30T11:36:28.217Z,96.40
2018-07-30T11:38:55.044Z,95.90
2018-07-30T11:41:21.703Z,96.40
2018-07-30T11:43:48.379Z,95.60
2018-07-30T11:46:15.200Z,95.50
2018-07-30T11:48:41.893Z,96.10
2018-07-30T11:51:09.483Z,97.50
2018-07-30T11:53:36.323Z,97.50
2018-07-30T11:56:03.044Z,97.00
2018-07-30T11:58:29.705Z,98.20
2018-07-30T12:00:56.555Z,98.40
2018-07-30T12:03:23.211Z,98.80
2018-07-30T12:05:49.831Z,99.90
2018-07-30T12:08:16.771Z,99.90
2018-07-30T12:10:43.482Z,99.90
2018-07-30T12:13:10.962Z,99.90
2018-07-30T12:15:37.909Z,99.90
2018-07-30T12:18:04.670Z,99.90
2018-07-30T12:20:31.377Z,99.90
2018-07-30T12:22:58.110Z,99.90
2018-07-30T12:25:25.541Z,99.90
2018-07-30T12:27:52.202Z,99.90
2018-07-30T12:30:19.774Z,99.90
2018-07-30T12:32:46.386Z,99.90
2018-07-30T12:35:13.890Z,99.90
2018-07-30T12:37:40.803Z,99.90
2018-07-30T12:40:07.603Z,99.90
2018-07-30T12:42:34.301Z,99.90
2018-07-30T12:45:01.199Z,99.90
2018-07-30T12:47:27.905Z,99.90
2018-07-30T12:49:54.602Z,99.90
2018-07-30T12:52:22.155Z,99.90
2018-07-30T12:54:49.554Z,99.90
2018-07-30T12:57:16.277Z,99.90
2018-07-30T12:59:43.092Z,99.90
2018-07-30T13:02:10.477Z,99.90
2018-07-30T13:04:37.160Z,99.90
2018-07-30T13:07:04.365Z,99.90
2018-07-30T13:09:31.322Z,99.90
2018-07-30T13:11:58.122Z,99.90
2018-07-30T13:14:25.669Z,99.90
2018-07-30T13:16:52.345Z,99.90
2018-07-30T13:19:19.029Z,99.90
2018-07-30T13:21:45.764Z,99.90
2018-07-30T13:24:12.438Z,99.90
2018-07-30T13:26:39.251Z,99.90
2018-07-30T13:29:06.861Z,99.90
2018-07-30T13:31:33.659Z,99.90
2018-07-30T13:34:00.398Z,99.90
2018-07-30T13:36:28.018Z,99.90
2018-07-30T13:38:54.697Z,99.90
2018-07-30T13:41:21.393Z,99.90
2018-07-30T13:43:48.120Z,99.90
2018-07-30T13:46:14.830Z,99.90
2018-07-30T13:48:41.515Z,99.90
2018-07-30T13:51:08.244Z,99.90
2018-07-30T13:53:34.939Z,99.90
2018-07-30T13:56:02.078Z,99.90
2018-07-30T13:58:28.892Z,99.90
2018-07-30T14:00:55.568Z,99.90
2018-07-30T14:03:22.229Z,99.10
2018-07-30T14:05:48.926Z,97.50
2018-07-30T14:08:15.580Z,96.90
2018-07-30T14:10:42.286Z,97.20
2018-07-30T14:13:09.075Z,97.00
2018-07-30T14:15:35.985Z,95.60
2018-07-30T14:18:02.768Z,95.20
2018-07-30T14:20:30.317Z,95.30
2018-07-30T14:22:56.970Z,95.20
2018-07-30T14:25:23.630Z,95.20
2018-07-30T14:27:50.496Z,95.60
2018-07-30T14:30:17.169Z,95.40
2018-07-30T14:35:54.548Z,96.70
2018-07-30T14:38:21.371Z,96.90
2018-07-30T14:40:48.842Z,97.80
2018-07-30T14:43:17.314Z,97.70
2018-07-30T14:45:44.300Z,97.90
2018-07-30T14:48:10.996Z,97.10
2018-07-30T14:50:37.683Z,96.50
2018-07-30T14:53:04.520Z,97.00
2018-07-30T14:55:31.930Z,97.70
2018-07-30T14:57:58.599Z,97.60
2018-07-30T15:00:25.318Z,98.20
2018-07-30T15:02:52.760Z,99.10
2018-07-30T15:05:19.489Z,99.10
2018-07-30T15:07:46.268Z,99.90
2018-07-30T15:10:13.012Z,99.90
2018-07-30T15:12:39.800Z,99.90
2018-07-30T15:15:06.679Z,99.90
2018-07-30T15:17:33.373Z,99.90
2018-07-30T15:20:00.255Z,99.50
2018-07-30T15:22:27.113Z,99.10
2018-07-30T15:24:53.901Z,99.80
2018-07-30T15:27:20.610Z,99.90
2018-07-30T15:29:48.201Z,99.90
2018-07-30T15:32:15.186Z,99.90
2018-07-30T15:34:41.868Z,99.90
2018-07-30T15:37:08.748Z,99.90
2018-07-30T15:39:36.304Z,99.90
2018-07-30T15:42:03.163Z,99.90
2018-07-30T15:44:30.424Z,99.90
2018-07-30T15:46:57.130Z,99.90
2018-07-30T15:49:24.249Z,99.90
2018-07-30T15:51:51.101Z,99.90
2018-07-30T15:54:17.969Z,99.90
2018-07-30T15:56:44.775Z,99.90
2018-07-30T15:59:12.645Z,99.90
2018-07-30T16:01:39.345Z,99.90
2018-07-30T16:04:06.037Z,99.90
2018-07-30T16:06:32.922Z,99.90
2018-07-30T16:08:59.730Z,99.90
2018-07-30T16:11:26.459Z,99.90
2018-07-30T16:13:53.374Z,99.90
2018-07-30T16:16:20.081Z,99.90
2018-07-30T16:18:46.786Z,99.90
2018-07-30T16:21:14.438Z,99.90
2018-07-30T16:23:41.152Z,99.90
2018-07-30T16:26:07.857Z,99.90
2018-07-30T16:28:34.689Z,99.90
2018-07-30T16:31:01.458Z,99.90
2018-07-30T16:33:28.140Z,99.90
2018-07-30T16:35:55.690Z,99.90
2018-07-30T16:38:22.650Z,99.90
2018-07-30T16:40:49.895Z,99.90
2018-07-30T16:43:22.255Z,99.90
2018-07-30T16:45:49.465Z,99.90
2018-07-30T16:48:16.237Z,99.90
2018-07-30T16:50:43.124Z,99.90
2018-07-30T16:53:10.110Z,99.90
2018-07-30T16:55:37.137Z,99.90
2018-07-30T16:58:04.684Z,99.90
2018-07-30T17:00:31.543Z,99.90
2018-07-30T17:02:58.286Z,99.90
2018-07-30T17:05:25.268Z,99.90
2018-07-30T17:07:52.056Z,99.90
2018-07-30T17:10:18.908Z,99.90
2018-07-30T17:12:46.658Z,99.90
2018-07-30T17:15:13.425Z,99.90
2018-07-30T17:17:40.169Z,99.90
2018-07-30T17:20:07.009Z,99.90
2018-07-30T17:22:33.696Z,99.90
2018-07-30T17:25:01.192Z,99.90
2018-07-30T17:27:27.988Z,99.90
2018-07-30T17:29:54.869Z,99.90
2018-07-30T17:32:21.568Z,99.90
2018-07-30T17:34:49.160Z,99.90
2018-07-30T17:37:15.857Z,99.90
2018-07-30T17:39:42.584Z,99.90
2018-07-30T17:42:10.064Z,99.90
2018-07-30T17:44:37.603Z,99.90
2018-07-30T17:47:04.370Z,99.90
2018-07-30T17:49:31.688Z,99.90
2018-07-30T17:51:59.341Z,99.90
2018-07-30T17:54:26.197Z,99.90
2018-07-30T17:56:52.965Z,99.90
2018-07-30T17:59:20.554Z,99.90
2018-07-30T18:01:47.320Z,99.90
2018-07-30T18:04:14.578Z,99.90
2018-07-30T18:06:42.639Z,99.90
2018-07-30T18:09:10.142Z,99.90
2018-07-30T18:11:37.935Z,99.90
2018-07-30T18:14:04.742Z,99.90
2018-07-30T18:16:32.529Z,99.90
2018-07-30T18:18:59.414Z,99.90
2018-07-30T18:21:26.118Z,99.90
2018-07-30T18:23:52.928Z,99.90
2018-07-30T18:26:20.660Z,99.90
2018-07-30T18:28:48.065Z,99.90
2018-07-30T18:31:15.617Z,99.90
2018-07-30T18:33:43.723Z,99.90
2018-07-30T18:36:11.917Z,99.90
2018-07-30T18:38:38.626Z,99.90
2018-07-30T18:41:05.766Z,99.90
2018-07-30T18:43:32.481Z,99.90
2018-07-30T18:45:59.282Z,99.90
2018-07-30T18:48:26.087Z,99.90
2018-07-30T18:50:53.785Z,99.90
2018-07-30T18:53:20.635Z,99.90
2018-07-30T18:55:47.768Z,99.90
2018-07-30T18:58:14.528Z,99.90
2018-07-30T19:00:41.411Z,99.90
2018-07-30T19:03:09.235Z,99.90
2018-07-30T19:05:36.090Z,99.90
2018-07-30T19:08:03.048Z,99.90
2018-07-30T19:10:30.004Z,99.90
2018-07-30T19:12:57.454Z,99.90
2018-07-30T19:15:24.161Z,99.90
2018-07-30T19:17:51.027Z,99.90
2018-07-30T19:20:17.747Z,99.90
2018-07-30T19:22:44.412Z,99.90
2018-07-30T19:25:13.001Z,99.90
2018-07-30T19:27:39.690Z,99.90
2018-07-30T19:30:06.717Z,99.90
2018-07-30T19:32:34.304Z,99.90
2018-07-30T19:35:01.180Z,99.90
2018-07-30T19:37:28.062Z,99.90
2018-07-30T19:39:55.555Z,99.90
2018-07-30T19:42:23.602Z,99.90
2018-07-30T19:44:50.876Z,99.90
2018-07-30T19:47:17.693Z,99.90
2018-07-30T19:49:45.288Z,99.90
2018-07-30T19:52:12.019Z,99.90
2018-07-30T19:54:38.795Z,99.90
2018-07-30T19:57:05.921Z,99.90
2018-07-30T19:59:32.562Z,99.90
2018-07-30T20:01:59.455Z,99.90
2018-07-30T20:04:26.345Z,99.90
2018-07-30T20:06:53.148Z,99.90
2018-07-30T20:09:20.390Z,99.90
2018-07-30T20:11:47.224Z,99.90
2018-07-30T20:14:16.116Z,99.90
2018-07-30T20:16:42.868Z,99.90
2018-07-30T20:19:09.525Z,99.90
2018-07-30T20:21:36.270Z,99.90
2018-07-30T20:24:03.147Z,99.90
2018-07-30T20:26:30.204Z,99.90
2018-07-30T20:28:57.766Z,99.90
2018-07-30T20:31:25.646Z,99.90
2018-07-30T20:33:52.347Z,99.90
2018-07-30T20:36:19.062Z,99.90
2018-07-30T20:38:46.483Z,99.90
2018-07-30T20:41:13.271Z,99.90
2018-07-30T20:43:40.192Z,99.90
2018-07-30T20:46:07.031Z,99.90
2018-07-30T20:48:34.473Z,99.90
2018-07-30T20:51:01.136Z,99.90
2018-07-30T20:53:28.601Z,99.90
2018-07-30T20:55:55.318Z,99.90
2018-07-30T20:58:22.713Z,99.90
2018-07-30T21:00:49.424Z,99.90
2018-07-30T21:03:16.847Z,99.90
2018-07-30T21:05:43.538Z,99.90
2018-07-30T21:08:10.381Z,99.90
2018-07-30T21:10:37.072Z,99.90
2018-07-30T21:13:03.771Z,99.90
2018-07-30T21:15:30.564Z,99.90
2018-07-30T21:17:57.529Z,99.90
2018-07-30T21:20:25.002Z,99.90
2018-07-30T21:22:51.846Z,99.90
2018-07-30T21:25:18.910Z,99.90
2018-07-30T21:27:45.667Z,99.90
2018-07-30T21:30:12.494Z,99.90
2018-07-30T21:32:39.220Z,99.90
2018-07-30T21:35:05.903Z,99.90
2018-07-30T21:37:32.751Z,99.90
2018-07-30T21:39:59.506Z,99.90
2018-07-30T21:42:26.955Z,99.90
2018-07-30T21:44:53.719Z,99.90
2018-07-30T21:47:20.498Z,99.90
2018-07-30T21:49:47.410Z,99.90
2018-07-30T21:52:14.897Z,99.90
2018-07-30T21:54:41.569Z,99.90
2018-07-30T21:57:08.318Z,99.90
2018-07-30T21:59:35.482Z,99.90
2018-07-30T22:02:02.286Z,99.90
2018-07-30T22:04:28.972Z,99.90
2018-07-30T22:06:56.571Z,99.90
2018-07-30T22:09:23.334Z,99.90
2018-07-30T22:11:51.073Z,99.90
2018-07-30T22:14:18.987Z,99.90
2018-07-30T22:16:45.928Z,99.90
2018-07-30T22:19:12.710Z,99.90
2018-07-30T22:21:39.498Z,99.90
2018-07-30T22:24:06.195Z,99.90
2018-07-30T22:26:32.928Z,99.90
2018-07-30T22:28:59.746Z,99.90
2018-07-30T22:31:26.437Z,99.90
2018-07-30T22:33:53.128Z,99.90
2018-07-30T22:36:20.777Z,99.90
2018-07-30T22:38:48.255Z,99.90
2018-07-30T22:41:15.014Z,99.90
2018-07-30T22:43:41.959Z,99.90
2018-07-30T22:46:08.763Z,99.90
2018-07-30T22:48:35.655Z,99.90
2018-07-30T22:51:02.518Z,99.90
2018-07-30T22:53:29.236Z,99.90
2018-07-30T22:55:55.949Z,99.90
2018-07-30T22:58:23.541Z,99.90
2018-07-30T23:00:51.129Z,99.90
2018-07-30T23:03:17.884Z,99.90
2018-07-30T23:05:44.797Z,99.90
2018-07-30T23:08:11.800Z,99.90
2018-07-30T23:10:38.562Z,99.90
2018-07-30T23:13:05.249Z,99.90
2018-07-30T23:15:32.116Z,99.90
2018-07-30T23:17:59.521Z,99.90
2018-07-30T23:20:26.203Z,99.90
2018-07-30T23:22:52.958Z,99.90
2018-07-30T23:25:19.701Z,99.90
2018-07-30T23:27:47.137Z,99.90
2018-07-30T23:30:13.884Z,99.90
2018-07-30T23:32:41.362Z,99.90
2018-07-30T23:35:08.068Z,99.90
2018-07-30T23:37:34.840Z,99.90
2018-07-30T23:40:02.421Z,99.90
2018-07-30T23:42:29.737Z,99.90
2018-07-30T23:44:57.683Z,99.90
2018-07-30T23:47:24.538Z,99.90
2018-07-30T23:49:51.278Z,99.90
2018-07-30T23:52:18.037Z,99.90
2018-07-30T23:54:45.997Z,99.90
2018-07-30T23:57:13.216Z,99.90
2018-07-30T23:59:40.323Z,99.90
